createdAt,value
2019-03-24T00:00:30.869Z,99.90
2019-03-24T00:02:57.605Z,99.70
2019-03-24T00:05:24.244Z,99.80
2019-03-24T00:07:50.940Z,99.90
2019-03-24T00:10:17.928Z,99.50
2019-03-24T00:12:44.581Z,99.20
2019-03-24T00:15:11.364Z,98.80
2019-03-24T00:17:38.049Z,98.20
2019-03-24T00:20:05.704Z,98.70
2019-03-24T00:22:32.367Z,99.00
2019-03-24T00:24:59.064Z,98.10
2019-03-24T00:27:25.805Z,98.00
2019-03-24T00:29:55.684Z,98.50
2019-03-24T00:32:22.368Z,98.00
2019-03-24T00:34:49.014Z,98.20
2019-03-24T00:37:16.066Z,97.90
2019-03-24T00:39:42.720Z,97.70
2019-03-24T00:42:09.430Z,97.00
2019-03-24T00:44:36.249Z,97.30
2019-03-24T00:47:02.902Z,96.90
2019-03-24T00:49:30.982Z,97.60
2019-03-24T00:51:57.647Z,97.30
2019-03-24T00:54:24.321Z,97.70
2019-03-24T00:56:51.105Z,97.20
2019-03-24T00:59:17.745Z,97.30
2019-03-24T01:01:44.466Z,97.00
2019-03-24T01:04:11.274Z,97.70
2019-03-24T01:06:38.100Z,97.10
2019-03-24T01:09:06.431Z,96.90
2019-03-24T01:11:33.124Z,97.30
2019-03-24T01:13:59.919Z,97.80
2019-03-24T01:16:26.582Z,97.70
2019-03-24T01:18:53.226Z,97.10
2019-03-24T01:21:21.123Z,97.00
2019-03-24T01:23:49.027Z,96.90
2019-03-24T01:26:15.698Z,96.50
2019-03-24T01:28:42.498Z,96.60
2019-03-24T01:31:09.137Z,96.80
2019-03-24T01:33:35.941Z,96.80
2019-03-24T01:36:02.689Z,97.20
2019-03-24T01:38:29.364Z,97.00
2019-03-24T01:40:56.184Z,97.70
2019-03-24T01:43:22.996Z,97.40
2019-03-24T01:45:58.246Z,96.70
2019-03-24T01:48:18.262Z,97.00
2019-03-24T01:50:45.065Z,96.50
2019-03-24T01:53:11.817Z,97.00
2019-03-24T01:55:38.487Z,96.60
2019-03-24T01:58:05.191Z,96.40
2019-03-24T02:00:31.833Z,96.20
2019-03-24T02:02:58.741Z,96.40
2019-03-24T02:05:26.779Z,97.00
2019-03-24T02:10:34.888Z,96.80
2019-03-24T02:13:01.597Z,96.60
2019-03-24T02:15:28.344Z,97.20
2019-03-24T02:17:55.042Z,96.50
2019-03-24T02:20:21.999Z,96.30
2019-03-24T02:22:48.680Z,96.50
2019-03-24T02:25:16.011Z,96.50
2019-03-24T02:27:42.614Z,96.70
2019-03-24T02:30:09.709Z,97.00
2019-03-24T02:32:36.351Z,96.50
2019-03-24T02:35:05.440Z,96.30
2019-03-24T02:37:32.096Z,96.20
2019-03-24T02:39:58.763Z,96.20
2019-03-24T02:42:25.423Z,95.90
2019-03-24T02:44:52.105Z,96.00
2019-03-24T02:47:19.250Z,96.20
2019-03-24T02:49:45.935Z,97.10
2019-03-24T02:52:12.629Z,97.10
2019-03-24T02:54:40.166Z,97.40
2019-03-24T02:57:06.790Z,97.50
2019-03-24T02:59:33.645Z,96.80
2019-03-24T03:02:00.417Z,97.10
2019-03-24T03:04:27.125Z,97.10
2019-03-24T03:06:53.790Z,96.70
2019-03-24T03:09:20.475Z,96.50
2019-03-24T03:11:47.214Z,96.90
2019-03-24T03:14:13.989Z,96.50
2019-03-24T03:16:40.846Z,96.40
2019-03-24T03:19:07.618Z,96.20
2019-03-24T03:21:34.258Z,96.90
2019-03-24T03:24:00.940Z,97.40
2019-03-24T03:26:27.726Z,97.70
2019-03-24T03:28:54.355Z,97.50
2019-03-24T03:31:21.034Z,97.40
2019-03-24T03:33:47.675Z,97.80
2019-03-24T03:36:14.364Z,97.00
2019-03-24T03:38:40.994Z,97.40
2019-03-24T03:41:08.014Z,97.30
2019-03-24T03:43:34.799Z,97.10
2019-03-24T03:46:01.486Z,97.10
2019-03-24T03:48:28.178Z,97.60
2019-03-24T03:50:54.877Z,97.30
2019-03-24T03:53:21.497Z,97.10
2019-03-24T03:55:48.257Z,97.70
2019-03-24T03:58:14.937Z,97.20
2019-03-24T04:00:41.573Z,96.90
2019-03-24T04:03:08.306Z,97.00
2019-03-24T04:05:34.979Z,96.50
2019-03-24T04:08:01.631Z,96.80
2019-03-24T04:10:28.334Z,96.80
2019-03-24T04:12:54.964Z,96.70
2019-03-24T04:15:21.646Z,96.90
2019-03-24T04:17:48.710Z,96.50
2019-03-24T04:20:15.483Z,95.90
2019-03-24T04:22:42.177Z,96.10
2019-03-24T04:25:09.017Z,96.10
2019-03-24T04:27:35.803Z,95.80
2019-03-24T04:30:03.335Z,96.10
2019-03-24T04:32:30.038Z,95.90
2019-03-24T04:34:56.788Z,96.00
2019-03-24T04:37:23.469Z,95.90
2019-03-24T04:39:50.132Z,95.60
2019-03-24T04:42:16.836Z,95.10
2019-03-24T04:44:43.464Z,95.10
2019-03-24T04:47:16.613Z,95.60
2019-03-24T04:49:38.564Z,94.80
2019-03-24T04:52:05.245Z,95.20
2019-03-24T04:54:32.021Z,95.20
2019-03-24T04:56:58.681Z,94.40
2019-03-24T04:59:25.360Z,95.10
2019-03-24T05:01:51.998Z,95.10
2019-03-24T05:04:18.840Z,95.60
2019-03-24T05:06:46.690Z,95.40
2019-03-24T05:09:13.756Z,95.20
2019-03-24T05:11:40.467Z,94.70
2019-03-24T05:14:07.109Z,94.50
2019-03-24T05:16:33.777Z,94.80
2019-03-24T05:19:00.735Z,94.70
2019-03-24T05:21:27.412Z,94.80
2019-03-24T05:23:54.054Z,95.40
2019-03-24T05:26:20.736Z,95.40
2019-03-24T05:28:47.393Z,95.40
2019-03-24T05:31:14.069Z,95.00
2019-03-24T05:33:40.704Z,94.80
2019-03-24T05:36:07.335Z,94.50
2019-03-24T05:38:34.015Z,94.50
2019-03-24T05:41:00.653Z,94.50
2019-03-24T05:43:27.327Z,94.10
2019-03-24T05:45:53.964Z,94.90
2019-03-24T05:48:20.642Z,94.40
2019-03-24T05:50:47.405Z,94.00
2019-03-24T05:53:14.077Z,94.30
2019-03-24T05:55:40.738Z,93.90
2019-03-24T05:58:07.426Z,94.20
2019-03-24T06:00:34.181Z,94.70
2019-03-24T06:03:00.886Z,94.70
2019-03-24T06:05:27.665Z,94.50
2019-03-24T06:07:54.303Z,94.70
2019-03-24T06:10:21.128Z,94.10
2019-03-24T06:12:47.779Z,93.30
2019-03-24T06:15:14.561Z,93.20
2019-03-24T06:17:47.777Z,93.90
2019-03-24T06:20:09.893Z,93.80
2019-03-24T06:22:36.777Z,93.70
2019-03-24T06:25:05.318Z,94.00
2019-03-24T06:27:32.194Z,93.40
2019-03-24T06:29:59.066Z,93.40
2019-03-24T06:32:25.737Z,93.10
2019-03-24T06:34:52.749Z,93.10
2019-03-24T06:37:19.449Z,93.30
2019-03-24T06:39:46.180Z,93.40
2019-03-24T06:42:13.222Z,93.40
2019-03-24T06:44:39.962Z,93.60
2019-03-24T06:47:06.653Z,93.30
2019-03-24T06:49:33.347Z,93.20
2019-03-24T06:52:00.182Z,93.00
2019-03-24T06:54:26.875Z,93.10
2019-03-24T06:56:53.505Z,93.10
2019-03-24T06:59:20.190Z,93.30
2019-03-24T07:01:46.972Z,93.40
2019-03-24T07:04:14.869Z,93.30
2019-03-24T07:06:41.647Z,93.50
2019-03-24T07:09:08.309Z,93.90
2019-03-24T07:11:34.984Z,94.00
2019-03-24T07:14:01.674Z,93.80
2019-03-24T07:16:28.358Z,93.70
2019-03-24T07:18:55.099Z,93.50
2019-03-24T07:21:21.761Z,93.90
2019-03-24T07:23:48.461Z,94.70
2019-03-24T07:26:15.158Z,94.10
2019-03-24T07:28:41.802Z,94.60
2019-03-24T07:31:08.573Z,94.30
2019-03-24T07:33:35.229Z,94.00
2019-03-24T07:36:01.914Z,93.90
2019-03-24T07:38:28.602Z,94.20
2019-03-24T07:40:55.260Z,93.90
2019-03-24T07:43:21.937Z,93.60
2019-03-24T07:45:48.676Z,92.90
2019-03-24T07:48:19.349Z,93.90
2019-03-24T07:50:43.909Z,93.60
2019-03-24T07:53:11.167Z,93.70
2019-03-24T07:55:37.927Z,93.80
2019-03-24T07:58:04.577Z,93.50
2019-03-24T08:00:34.668Z,93.60
2019-03-24T08:03:01.344Z,93.70
2019-03-24T08:05:28.114Z,93.80
2019-03-24T08:07:54.833Z,93.70
2019-03-24T08:10:21.506Z,94.80
2019-03-24T08:12:48.244Z,93.90
2019-03-24T08:15:14.944Z,94.10
2019-03-24T08:17:41.613Z,94.20
2019-03-24T08:20:08.480Z,93.90
2019-03-24T08:22:35.262Z,93.70
2019-03-24T08:25:02.010Z,94.30
2019-03-24T08:27:28.780Z,93.80
2019-03-24T08:29:55.434Z,93.70
2019-03-24T08:32:22.105Z,93.50
2019-03-24T08:34:49.403Z,93.70
2019-03-24T08:37:16.348Z,93.30
2019-03-24T08:39:43.045Z,93.60
2019-03-24T08:42:09.693Z,93.10
2019-03-24T08:44:36.389Z,92.60
2019-03-24T08:47:03.206Z,93.50
2019-03-24T08:49:29.869Z,93.60
2019-03-24T08:51:56.516Z,93.40
2019-03-24T08:54:23.183Z,93.30
2019-03-24T08:56:50.369Z,93.00
2019-03-24T08:59:16.980Z,93.60
2019-03-24T09:01:43.679Z,93.40
2019-03-24T09:04:10.378Z,93.60
2019-03-24T09:06:37.262Z,93.60
2019-03-24T09:09:05.198Z,93.60
2019-03-24T09:11:31.870Z,94.00
2019-03-24T09:13:58.497Z,94.20
2019-03-24T09:16:25.232Z,94.30
2019-03-24T09:18:53.048Z,94.80
2019-03-24T09:21:19.919Z,94.10
2019-03-24T09:23:46.519Z,94.60
2019-03-24T09:26:13.194Z,94.60
2019-03-24T09:28:39.865Z,94.40
2019-03-24T09:31:06.505Z,94.30
2019-03-24T09:33:33.299Z,93.50
2019-03-24T09:35:59.943Z,93.30
2019-03-24T09:38:26.715Z,93.20
2019-03-24T09:40:53.457Z,93.90
2019-03-24T09:43:20.142Z,93.60
2019-03-24T09:45:46.889Z,93.90
2019-03-24T09:48:14.057Z,93.40
2019-03-24T09:50:40.825Z,93.70
2019-03-24T09:53:07.567Z,94.30
2019-03-24T09:55:34.338Z,93.70
2019-03-24T09:58:01.038Z,93.30
2019-03-24T10:00:30.262Z,93.40
2019-03-24T10:02:56.820Z,93.50
2019-03-24T10:05:23.505Z,93.10
2019-03-24T10:07:50.189Z,92.90
2019-03-24T10:10:16.880Z,92.90
2019-03-24T10:12:43.542Z,93.10
2019-03-24T10:15:10.235Z,93.10
2019-03-24T10:17:36.869Z,92.60
2019-03-24T10:20:03.956Z,93.00
2019-03-24T10:22:30.572Z,92.80
2019-03-24T10:24:57.352Z,93.00
2019-03-24T10:27:25.062Z,92.80
2019-03-24T10:29:51.770Z,93.10
2019-03-24T10:32:18.453Z,93.50
2019-03-24T10:34:45.173Z,93.80
2019-03-24T10:37:11.853Z,93.80
2019-03-24T10:39:38.604Z,93.90
2019-03-24T10:42:05.273Z,93.90
2019-03-24T10:44:31.914Z,93.50
2019-03-24T10:46:58.612Z,93.40
2019-03-24T10:49:25.484Z,93.50
2019-03-24T10:51:52.193Z,93.80
2019-03-24T10:54:18.892Z,93.40
2019-03-24T10:56:45.678Z,93.10
2019-03-24T10:59:12.453Z,92.50
2019-03-24T11:01:39.145Z,92.30
2019-03-24T11:04:06.370Z,92.40
2019-03-24T11:06:33.121Z,92.20
2019-03-24T11:08:59.903Z,92.00
2019-03-24T11:11:26.635Z,92.60
2019-03-24T11:13:53.310Z,91.90
2019-03-24T11:16:19.961Z,92.00
2019-03-24T11:18:47.570Z,92.00
2019-03-24T11:21:14.231Z,91.60
2019-03-24T11:23:40.913Z,91.40
2019-03-24T11:26:07.553Z,91.00
2019-03-24T11:28:34.248Z,90.80
2019-03-24T11:31:00.921Z,90.60
2019-03-24T11:33:29.634Z,91.10
2019-03-24T11:35:57.477Z,90.90
2019-03-24T11:38:24.105Z,90.90
2019-03-24T11:40:50.886Z,91.00
2019-03-24T11:43:17.531Z,91.30
2019-03-24T11:45:44.197Z,91.30
2019-03-24T11:48:10.861Z,91.30
2019-03-24T11:50:37.624Z,91.70
2019-03-24T11:53:04.462Z,91.60
2019-03-24T11:55:31.111Z,91.00
2019-03-24T11:58:05.720Z,91.00
2019-03-24T12:00:31.989Z,90.50
2019-03-24T12:02:58.702Z,90.40
2019-03-24T12:05:25.350Z,90.00
2019-03-24T12:07:52.140Z,90.20
2019-03-24T12:10:18.905Z,89.90
2019-03-24T12:12:45.592Z,90.20
2019-03-24T12:15:12.335Z,89.80
2019-03-24T12:17:39.060Z,88.20
2019-03-24T12:20:06.604Z,88.50
2019-03-24T12:22:33.340Z,88.40
2019-03-24T12:25:00.014Z,86.90
2019-03-24T12:27:26.756Z,86.50
2019-03-24T12:29:53.433Z,84.20
2019-03-24T12:32:20.187Z,82.40
2019-03-24T12:34:47.056Z,80.80
2019-03-24T12:37:33.651Z,80.70
2019-03-24T12:40:00.380Z,80.50
2019-03-24T12:42:27.118Z,78.30
2019-03-24T12:45:13.724Z,73.30
2019-03-24T12:47:40.384Z,74.20
2019-03-24T12:50:09.867Z,72.70
2019-03-24T12:52:36.842Z,72.70
2019-03-24T12:55:05.805Z,74.40
2019-03-24T12:57:32.488Z,73.30
2019-03-24T12:59:59.120Z,73.10
2019-03-24T13:02:25.847Z,70.40
2019-03-24T13:04:52.480Z,68.70
2019-03-24T13:07:19.301Z,70.00
2019-03-24T13:09:46.033Z,69.50
2019-03-24T13:12:12.774Z,68.70
2019-03-24T13:14:39.421Z,67.70
2019-03-24T13:17:06.058Z,68.40
2019-03-24T13:19:32.755Z,71.70
2019-03-24T13:21:59.437Z,73.10
2019-03-24T13:24:26.116Z,71.50
2019-03-24T13:26:52.762Z,71.80
2019-03-24T13:29:19.426Z,71.90
2019-03-24T13:31:48.099Z,71.60
2019-03-24T13:34:16.542Z,73.10
2019-03-24T13:36:43.182Z,71.60
2019-03-24T13:39:09.958Z,70.20
2019-03-24T13:41:36.620Z,71.50
2019-03-24T13:44:03.481Z,72.70
2019-03-24T13:46:30.164Z,72.60
2019-03-24T13:48:56.955Z,73.60
2019-03-24T13:51:23.670Z,73.80
2019-03-24T13:53:50.256Z,73.10
2019-03-24T13:56:16.938Z,73.00
2019-03-24T13:58:43.689Z,74.20
2019-03-24T14:01:10.494Z,72.10
2019-03-24T14:03:37.183Z,72.80
2019-03-24T14:06:03.841Z,74.10
2019-03-24T14:08:30.480Z,73.20
2019-03-24T14:10:57.156Z,73.00
2019-03-24T14:13:23.798Z,75.40
2019-03-24T14:15:50.485Z,74.70
2019-03-24T14:18:17.237Z,76.00
2019-03-24T14:20:44.178Z,74.60
2019-03-24T14:23:10.976Z,75.70
2019-03-24T14:25:37.628Z,76.00
2019-03-24T14:28:04.312Z,75.80
2019-03-24T14:30:45.434Z,76.20
2019-03-24T14:33:12.258Z,76.50
2019-03-24T14:35:39.393Z,77.40
2019-03-24T14:38:24.936Z,76.70
2019-03-24T14:40:51.609Z,76.20
2019-03-24T14:43:18.281Z,77.00
2019-03-24T14:45:44.912Z,75.10
2019-03-24T14:48:11.586Z,74.40
2019-03-24T14:50:38.257Z,74.00
2019-03-24T14:53:04.936Z,72.70
2019-03-24T14:55:31.676Z,74.10
2019-03-24T14:57:58.322Z,74.40
2019-03-24T15:00:37.291Z,74.40
2019-03-24T15:03:04.130Z,73.50
2019-03-24T15:05:30.800Z,74.10
2019-03-24T15:07:57.505Z,73.80
2019-03-24T15:10:24.128Z,73.40
2019-03-24T15:12:53.220Z,72.20
2019-03-24T15:15:19.853Z,73.20
2019-03-24T15:17:46.651Z,72.90
2019-03-24T15:20:13.273Z,71.20
2019-03-24T15:22:39.953Z,70.40
2019-03-24T15:25:06.584Z,70.50
2019-03-24T15:27:33.355Z,71.30
2019-03-24T15:30:00.352Z,71.90
2019-03-24T15:32:27.156Z,72.30
2019-03-24T15:34:54.133Z,71.90
2019-03-24T15:37:20.803Z,71.90
2019-03-24T15:39:47.625Z,71.10
2019-03-24T15:42:14.434Z,71.50
2019-03-24T15:44:41.080Z,72.50
2019-03-24T15:47:08.318Z,73.50
2019-03-24T15:49:35.017Z,75.30
2019-03-24T15:52:01.663Z,75.40
2019-03-24T15:54:28.294Z,77.90
2019-03-24T15:56:55.068Z,75.90
2019-03-24T15:59:21.832Z,78.20
2019-03-24T16:01:48.481Z,75.00
2019-03-24T16:04:15.174Z,76.30
2019-03-24T16:06:41.852Z,73.40
2019-03-24T16:09:08.492Z,74.40
2019-03-24T16:11:35.168Z,74.60
2019-03-24T16:14:01.814Z,72.70
2019-03-24T16:16:28.491Z,76.50
2019-03-24T16:18:55.122Z,76.50
2019-03-24T16:21:27.890Z,74.90
2019-03-24T16:23:50.209Z,74.90
2019-03-24T16:26:16.959Z,74.00
2019-03-24T16:28:43.630Z,73.60
2019-03-24T16:31:10.396Z,73.40
2019-03-24T16:33:37.159Z,73.70
2019-03-24T16:36:03.808Z,74.50
2019-03-24T16:38:30.488Z,74.30
2019-03-24T16:40:57.123Z,73.70
2019-03-24T16:43:23.746Z,74.40
2019-03-24T16:45:50.445Z,74.80
2019-03-24T16:48:17.141Z,74.60
2019-03-24T16:50:43.764Z,75.00
2019-03-24T16:53:10.458Z,75.00
2019-03-24T16:55:37.152Z,74.40
2019-03-24T16:58:03.789Z,74.10
2019-03-24T17:00:30.457Z,74.20
2019-03-24T17:02:57.125Z,74.00
2019-03-24T17:05:23.818Z,73.40
2019-03-24T17:07:50.435Z,73.60
2019-03-24T17:10:17.128Z,73.00
2019-03-24T17:12:43.754Z,72.60
2019-03-24T17:15:10.792Z,72.40
2019-03-24T17:17:37.467Z,72.50
2019-03-24T17:20:06.417Z,73.70
2019-03-24T17:22:33.131Z,74.30
2019-03-24T17:24:59.777Z,73.20
2019-03-24T17:27:45.178Z,73.20
2019-03-24T17:30:11.949Z,74.00
2019-03-24T17:32:38.669Z,74.30
2019-03-24T17:35:05.963Z,73.80
2019-03-24T17:37:32.749Z,73.10
2019-03-24T17:39:59.602Z,73.10
2019-03-24T17:42:26.376Z,72.70
2019-03-24T17:44:53.067Z,72.00
2019-03-24T17:47:19.844Z,74.10
2019-03-24T17:49:46.520Z,73.10
2019-03-24T17:52:13.230Z,72.70
2019-03-24T17:54:40.035Z,73.10
2019-03-24T17:57:06.696Z,72.40
2019-03-24T17:59:33.469Z,72.70
2019-03-24T18:02:00.230Z,72.40
2019-03-24T18:04:27.065Z,71.60
2019-03-24T18:06:53.710Z,70.30
2019-03-24T18:09:20.401Z,71.20
2019-03-24T18:11:47.177Z,70.30
2019-03-24T18:14:14.983Z,71.00
2019-03-24T18:16:42.063Z,70.40
2019-03-24T18:19:08.707Z,71.10
2019-03-24T18:21:35.384Z,70.00
2019-03-24T18:24:02.033Z,70.30
2019-03-24T18:26:28.712Z,71.30
2019-03-24T18:28:55.448Z,70.50
2019-03-24T18:31:22.151Z,70.00
2019-03-24T18:33:48.809Z,71.00
2019-03-24T18:36:15.434Z,69.90
2019-03-24T18:38:42.117Z,69.00
2019-03-24T18:41:08.755Z,69.20
2019-03-24T18:43:35.426Z,69.20
2019-03-24T18:46:02.092Z,69.10
2019-03-24T18:48:28.769Z,68.90
2019-03-24T18:50:55.571Z,68.50
2019-03-24T18:53:22.354Z,68.60
2019-03-24T18:55:49.022Z,68.20
2019-03-24T18:58:15.722Z,68.60
2019-03-24T19:00:42.485Z,69.00
2019-03-24T19:03:09.294Z,69.30
2019-03-24T19:05:35.928Z,68.90
2019-03-24T19:08:03.000Z,69.90
2019-03-24T19:10:29.681Z,70.10
2019-03-24T19:12:56.420Z,70.30
2019-03-24T19:15:23.120Z,69.50
2019-03-24T19:17:49.755Z,70.00
2019-03-24T19:20:16.441Z,69.50
2019-03-24T19:22:43.085Z,69.60
2019-03-24T19:25:09.915Z,70.00
2019-03-24T19:27:36.669Z,71.20
2019-03-24T19:30:07.050Z,71.50
2019-03-24T19:32:33.873Z,71.60
2019-03-24T19:35:00.595Z,71.70
2019-03-24T19:37:27.918Z,73.00
2019-03-24T19:39:54.768Z,74.10
2019-03-24T19:42:21.426Z,75.10
2019-03-24T19:44:48.089Z,73.70
2019-03-24T19:47:14.765Z,73.80
2019-03-24T19:49:41.464Z,76.00
2019-03-24T19:52:08.123Z,75.70
2019-03-24T19:54:34.821Z,75.20
2019-03-24T19:57:01.480Z,75.50
2019-03-24T19:59:28.146Z,75.70
2019-03-24T20:01:54.837Z,75.10
2019-03-24T20:04:21.616Z,74.90
2019-03-24T20:06:48.259Z,75.10
2019-03-24T20:09:14.935Z,75.90
2019-03-24T20:11:41.799Z,75.40
2019-03-24T20:14:08.529Z,76.30
2019-03-24T20:16:35.212Z,76.60
2019-03-24T20:19:01.999Z,77.10
2019-03-24T20:21:28.645Z,76.60
2019-03-24T20:23:55.295Z,76.30
2019-03-24T20:26:22.040Z,77.00
2019-03-24T20:28:48.742Z,76.30
2019-03-24T20:31:15.587Z,76.30
2019-03-24T20:33:44.171Z,76.00
2019-03-24T20:36:10.676Z,76.40
2019-03-24T20:38:37.452Z,76.40
2019-03-24T20:41:04.334Z,77.90
2019-03-24T20:43:32.194Z,79.20
2019-03-24T20:45:58.837Z,77.70
2019-03-24T20:48:27.449Z,78.70
2019-03-24T20:50:54.109Z,77.60
2019-03-24T20:53:20.765Z,77.00
2019-03-24T20:55:47.527Z,77.00
2019-03-24T20:58:14.337Z,76.50
2019-03-24T21:00:41.080Z,77.20
2019-03-24T21:03:07.929Z,77.40
2019-03-24T21:05:35.548Z,77.90
2019-03-24T21:08:02.246Z,77.80
2019-03-24T21:10:30.371Z,77.80
2019-03-24T21:12:57.144Z,77.50
2019-03-24T21:15:23.849Z,77.90
2019-03-24T21:17:50.479Z,78.50
2019-03-24T21:20:17.165Z,79.10
2019-03-24T21:22:43.915Z,79.10
2019-03-24T21:25:11.361Z,79.50
2019-03-24T21:27:38.016Z,78.20
2019-03-24T21:30:06.773Z,78.50
2019-03-24T21:32:34.637Z,78.00
2019-03-24T21:35:02.535Z,77.90
2019-03-24T21:37:29.450Z,78.00
2019-03-24T21:39:56.395Z,78.20
2019-03-24T21:42:23.782Z,79.90
2019-03-24T21:44:50.489Z,79.20
2019-03-24T21:47:17.249Z,79.00
2019-03-24T21:49:43.977Z,79.50
2019-03-24T21:52:10.703Z,79.50
2019-03-24T21:54:37.860Z,79.60
2019-03-24T21:57:04.546Z,77.80
2019-03-24T21:59:32.988Z,78.70
2019-03-24T22:01:59.851Z,79.20
2019-03-24T22:04:26.473Z,79.90
2019-03-24T22:06:53.813Z,79.90
2019-03-24T22:09:20.448Z,80.20
2019-03-24T22:11:47.160Z,80.10
2019-03-24T22:14:15.592Z,80.20
2019-03-24T22:16:42.403Z,80.30
2019-03-24T22:19:09.213Z,80.70
2019-03-24T22:21:36.813Z,79.50
2019-03-24T22:24:04.068Z,80.00
2019-03-24T22:26:31.010Z,80.90
2019-03-24T22:28:57.687Z,79.70
2019-03-24T22:31:24.372Z,80.00
2019-03-24T22:33:51.125Z,80.00
2019-03-24T22:36:17.864Z,80.70
2019-03-24T22:38:44.458Z,80.40
2019-03-24T22:41:11.174Z,80.90
2019-03-24T22:43:37.813Z,81.80
2019-03-24T22:46:04.448Z,82.40
2019-03-24T22:48:31.223Z,82.50
2019-03-24T22:50:57.894Z,83.00
2019-03-24T22:53:24.560Z,81.20
2019-03-24T22:55:51.226Z,81.50
2019-03-24T22:58:17.932Z,79.20
2019-03-24T23:00:51.240Z,80.60
2019-03-24T23:03:18.061Z,82.20
2019-03-24T23:05:44.873Z,81.60
2019-03-24T23:08:11.617Z,82.30
2019-03-24T23:10:38.486Z,81.70
2019-03-24T23:13:05.147Z,81.20
2019-03-24T23:15:31.927Z,82.40
2019-03-24T23:17:58.658Z,82.20
2019-03-24T23:20:25.352Z,82.10
2019-03-24T23:22:52.011Z,82.00
2019-03-24T23:25:19.830Z,83.10
2019-03-24T23:27:46.592Z,83.10
2019-03-24T23:30:13.775Z,82.80
2019-03-24T23:32:40.536Z,84.50
2019-03-24T23:35:07.362Z,83.90
2019-03-24T23:37:33.980Z,83.40
2019-03-24T23:40:00.603Z,84.30
2019-03-24T23:42:27.398Z,84.50
2019-03-24T23:44:55.869Z,83.60
2019-03-24T23:47:22.576Z,83.40
2019-03-24T23:49:49.393Z,83.80
2019-03-24T23:52:16.188Z,85.50
2019-03-24T23:54:42.855Z,86.00
2019-03-24T23:57:09.532Z,85.40
2019-03-24T23:59:36.193Z,87.00
